sensor_id;sensor_type;location;lat;lon;timestamp;temperature;humidity
975;DHT22;6115;49.296;10.602;2023-03-05T00:01:55;2.60;64.60
975;DHT22;6115;49.296;10.602;2023-03-05T00:06:55;2.60;64.40
975;DHT22;6115;49.296;10.602;2023-03-05T00:11:56;2.60;64.60
975;DHT22;6115;49.296;10.602;2023-03-05T00:16:57;2.40;65.10
975;DHT22;6115;49.296;10.602;2023-03-05T00:21:57;2.40;65.70
975;DHT22;6115;49.296;10.602;2023-03-05T00:26:58;2.40;65.90
975;DHT22;6115;49.296;10.602;2023-03-05T00:31:58;2.40;66.00
975;DHT22;6115;49.296;10.602;2023-03-05T00:36:59;2.50;65.80
975;DHT22;6115;49.296;10.602;2023-03-05T00:41:59;2.60;65.50
975;DHT22;6115;49.296;10.602;2023-03-05T00:47:00;2.60;65.30
975;DHT22;6115;49.296;10.602;2023-03-05T00:52:00;2.50;65.50
975;DHT22;6115;49.296;10.602;2023-03-05T00:57:01;2.50;66.20
975;DHT22;6115;49.296;10.602;2023-03-05T01:02:02;2.40;66.20
975;DHT22;6115;49.296;10.602;2023-03-05T01:07:03;2.40;67.10
975;DHT22;6115;49.296;10.602;2023-03-05T01:12:04;2.50;67.00
975;DHT22;6115;49.296;10.602;2023-03-05T01:17:04;2.40;66.80
975;DHT22;6115;49.296;10.602;2023-03-05T01:22:05;2.40;66.80
975;DHT22;6115;49.296;10.602;2023-03-05T01:27:05;2.30;67.30
975;DHT22;6115;49.296;10.602;2023-03-05T01:32:06;2.40;67.80
975;DHT22;6115;49.296;10.602;2023-03-05T01:37:07;2.40;67.50
975;DHT22;6115;49.296;10.602;2023-03-05T01:42:08;2.30;67.60
975;DHT22;6115;49.296;10.602;2023-03-05T01:47:09;2.40;67.90
975;DHT22;6115;49.296;10.602;2023-03-05T01:52:18;2.40;67.50
975;DHT22;6115;49.296;10.602;2023-03-05T01:57:23;2.30;67.90
975;DHT22;6115;49.296;10.602;2023-03-05T02:02:26;2.30;67.90
975;DHT22;6115;49.296;10.602;2023-03-05T02:07:26;2.30;67.90
975;DHT22;6115;49.296;10.602;2023-03-05T02:12:28;2.40;67.90
975;DHT22;6115;49.296;10.602;2023-03-05T02:17:29;2.40;67.90
975;DHT22;6115;49.296;10.602;2023-03-05T02:22:30;2.40;67.90
975;DHT22;6115;49.296;10.602;2023-03-05T02:27:31;2.40;67.90
975;DHT22;6115;49.296;10.602;2023-03-05T02:32:34;2.40;67.90
975;DHT22;6115;49.296;10.602;2023-03-05T02:37:34;2.40;67.90
975;DHT22;6115;49.296;10.602;2023-03-05T02:42:35;2.40;67.70
975;DHT22;6115;49.296;10.602;2023-03-05T02:47:36;2.50;67.60
975;DHT22;6115;49.296;10.602;2023-03-05T02:52:37;2.30;67.80
975;DHT22;6115;49.296;10.602;2023-03-05T02:57:38;2.30;67.90
975;DHT22;6115;49.296;10.602;2023-03-05T03:02:38;2.30;67.90
975;DHT22;6115;49.296;10.602;2023-03-05T03:07:39;2.40;67.90
975;DHT22;6115;49.296;10.602;2023-03-05T03:12:42;2.40;67.90
975;DHT22;6115;49.296;10.602;2023-03-05T03:17:43;2.40;67.90
975;DHT22;6115;49.296;10.602;2023-03-05T03:22:45;2.30;67.90
975;DHT22;6115;49.296;10.602;2023-03-05T03:27:46;2.50;67.60
975;DHT22;6115;49.296;10.602;2023-03-05T03:32:46;2.40;67.50
975;DHT22;6115;49.296;10.602;2023-03-05T03:37:47;2.40;68.00
975;DHT22;6115;49.296;10.602;2023-03-05T03:42:50;2.40;67.90
975;DHT22;6115;49.296;10.602;2023-03-05T03:47:51;2.30;67.90
975;DHT22;6115;49.296;10.602;2023-03-05T03:52:51;2.30;67.90
975;DHT22;6115;49.296;10.602;2023-03-05T03:57:52;2.20;68.40
975;DHT22;6115;49.296;10.602;2023-03-05T04:02:53;2.20;68.60
975;DHT22;6115;49.296;10.602;2023-03-05T04:07:53;2.20;68.80
975;DHT22;6115;49.296;10.602;2023-03-05T04:12:54;2.20;69.00
975;DHT22;6115;49.296;10.602;2023-03-05T04:17:54;2.20;68.80
975;DHT22;6115;49.296;10.602;2023-03-05T04:22:55;2.10;68.90
975;DHT22;6115;49.296;10.602;2023-03-05T04:27:56;2.10;69.40
975;DHT22;6115;49.296;10.602;2023-03-05T04:32:57;2.10;69.40
975;DHT22;6115;49.296;10.602;2023-03-05T04:37:57;2.00;69.90
975;DHT22;6115;49.296;10.602;2023-03-05T04:42:58;1.80;70.50
975;DHT22;6115;49.296;10.602;2023-03-05T04:47:59;1.80;71.30
975;DHT22;6115;49.296;10.602;2023-03-05T04:52:59;2.00;71.20
975;DHT22;6115;49.296;10.602;2023-03-05T04:58:00;1.90;71.40
975;DHT22;6115;49.296;10.602;2023-03-05T05:03:01;1.90;71.80
975;DHT22;6115;49.296;10.602;2023-03-05T05:08:02;2.00;71.90
975;DHT22;6115;49.296;10.602;2023-03-05T05:13:02;2.10;71.60
975;DHT22;6115;49.296;10.602;2023-03-05T05:18:03;2.10;71.90
975;DHT22;6115;49.296;10.602;2023-03-05T05:23:04;2.20;72.20
975;DHT22;6115;49.296;10.602;2023-03-05T05:28:04;2.20;72.40
975;DHT22;6115;49.296;10.602;2023-03-05T05:33:05;2.20;72.50
975;DHT22;6115;49.296;10.602;2023-03-05T05:38:05;2.20;72.50
975;DHT22;6115;49.296;10.602;2023-03-05T05:43:06;2.20;72.50
975;DHT22;6115;49.296;10.602;2023-03-05T05:48:07;2.20;72.60
975;DHT22;6115;49.296;10.602;2023-03-05T05:53:07;2.20;72.50
975;DHT22;6115;49.296;10.602;2023-03-05T05:58:08;2.00;72.40
975;DHT22;6115;49.296;10.602;2023-03-05T06:03:08;1.90;72.60
975;DHT22;6115;49.296;10.602;2023-03-05T06:08:09;1.90;73.10
975;DHT22;6115;49.296;10.602;2023-03-05T06:13:10;2.00;73.30
975;DHT22;6115;49.296;10.602;2023-03-05T06:18:10;2.00;73.50
975;DHT22;6115;49.296;10.602;2023-03-05T06:23:11;2.00;73.40
975;DHT22;6115;49.296;10.602;2023-03-05T06:28:11;2.10;73.50
975;DHT22;6115;49.296;10.602;2023-03-05T06:33:12;2.10;73.10
975;DHT22;6115;49.296;10.602;2023-03-05T06:38:13;2.00;73.30
975;DHT22;6115;49.296;10.602;2023-03-05T06:43:13;2.20;73.40
975;DHT22;6115;49.296;10.602;2023-03-05T06:48:14;2.20;73.20
975;DHT22;6115;49.296;10.602;2023-03-05T06:53:14;2.20;73.10
975;DHT22;6115;49.296;10.602;2023-03-05T06:58:15;2.30;73.10
975;DHT22;6115;49.296;10.602;2023-03-05T07:03:15;2.30;72.70
975;DHT22;6115;49.296;10.602;2023-03-05T07:08:16;2.50;72.80
975;DHT22;6115;49.296;10.602;2023-03-05T07:13:17;2.70;72.80
975;DHT22;6115;49.296;10.602;2023-03-05T07:18:17;2.70;72.40
975;DHT22;6115;49.296;10.602;2023-03-05T07:23:18;2.80;71.60
975;DHT22;6115;49.296;10.602;2023-03-05T07:28:19;2.90;71.20
975;DHT22;6115;49.296;10.602;2023-03-05T07:33:19;2.90;70.70
975;DHT22;6115;49.296;10.602;2023-03-05T07:38:20;2.80;70.40
975;DHT22;6115;49.296;10.602;2023-03-05T07:43:20;3.00;71.10
975;DHT22;6115;49.296;10.602;2023-03-05T07:48:21;3.10;70.60
975;DHT22;6115;49.296;10.602;2023-03-05T07:53:22;2.80;70.80
975;DHT22;6115;49.296;10.602;2023-03-05T07:58:22;2.70;71.20
975;DHT22;6115;49.296;10.602;2023-03-05T08:03:23;2.90;71.90
975;DHT22;6115;49.296;10.602;2023-03-05T08:08:23;3.00;71.50
975;DHT22;6115;49.296;10.602;2023-03-05T08:13:24;3.20;70.70
975;DHT22;6115;49.296;10.602;2023-03-05T08:18:24;3.30;69.60
975;DHT22;6115;49.296;10.602;2023-03-05T08:23:26;3.50;69.00
975;DHT22;6115;49.296;10.602;2023-03-05T08:28:26;3.60;68.50
975;DHT22;6115;49.296;10.602;2023-03-05T08:33:27;3.30;68.30
975;DHT22;6115;49.296;10.602;2023-03-05T08:38:27;3.20;68.70
975;DHT22;6115;49.296;10.602;2023-03-05T08:43:28;3.30;68.80
975;DHT22;6115;49.296;10.602;2023-03-05T08:48:30;3.40;68.90
975;DHT22;6115;49.296;10.602;2023-03-05T08:53:31;3.60;67.60
975;DHT22;6115;49.296;10.602;2023-03-05T08:58:32;3.70;66.60
975;DHT22;6115;49.296;10.602;2023-03-05T09:03:32;3.70;65.60
975;DHT22;6115;49.296;10.602;2023-03-05T09:08:34;3.70;64.30
975;DHT22;6115;49.296;10.602;2023-03-05T09:13:34;3.30;63.90
975;DHT22;6115;49.296;10.602;2023-03-05T09:18:35;3.30;64.00
975;DHT22;6115;49.296;10.602;2023-03-05T09:23:36;3.40;64.10
975;DHT22;6115;49.296;10.602;2023-03-05T09:28:38;3.40;64.00
975;DHT22;6115;49.296;10.602;2023-03-05T09:33:39;3.50;64.10
975;DHT22;6115;49.296;10.602;2023-03-05T09:38:39;3.40;64.00
975;DHT22;6115;49.296;10.602;2023-03-05T09:49:44;3.40;62.00
975;DHT22;6115;49.296;10.602;2023-03-05T09:54:42;3.00;58.40
975;DHT22;6115;49.296;10.602;2023-03-05T10:04:54;3.10;56.80
975;DHT22;6115;49.296;10.602;2023-03-05T10:09:59;3.30;56.40
975;DHT22;6115;49.296;10.602;2023-03-05T10:15:00;3.50;55.40
975;DHT22;6115;49.296;10.602;2023-03-05T10:20:13;3.50;54.70
975;DHT22;6115;49.296;10.602;2023-03-05T10:25:58;3.30;53.70
975;DHT22;6115;49.296;10.602;2023-03-05T10:31:15;3.40;53.50
975;DHT22;6115;49.296;10.602;2023-03-05T10:46:37;4.10;51.70
975;DHT22;6115;49.296;10.602;2023-03-05T10:51:46;4.10;51.50
975;DHT22;6115;49.296;10.602;2023-03-05T10:56:47;4.10;51.10
975;DHT22;6115;49.296;10.602;2023-03-05T11:02:02;4.40;51.40
975;DHT22;6115;49.296;10.602;2023-03-05T11:07:31;4.70;50.10
975;DHT22;6115;49.296;10.602;2023-03-05T11:12:34;5.10;48.40
975;DHT22;6115;49.296;10.602;2023-03-05T11:17:40;5.20;48.10
975;DHT22;6115;49.296;10.602;2023-03-05T11:23:02;5.00;47.50
975;DHT22;6115;49.296;10.602;2023-03-05T11:28:03;5.00;49.30
975;DHT22;6115;49.296;10.602;2023-03-05T11:33:19;5.60;47.90
975;DHT22;6115;49.296;10.602;2023-03-05T11:38:25;5.90;46.90
975;DHT22;6115;49.296;10.602;2023-03-05T11:43:28;5.50;46.70
975;DHT22;6115;49.296;10.602;2023-03-05T11:48:36;5.80;46.30
975;DHT22;6115;49.296;10.602;2023-03-05T11:53:38;5.50;45.40
975;DHT22;6115;49.296;10.602;2023-03-05T11:58:44;5.40;46.10
975;DHT22;6115;49.296;10.602;2023-03-05T12:03:45;5.40;46.00
975;DHT22;6115;49.296;10.602;2023-03-05T12:08:51;5.30;45.70
975;DHT22;6115;49.296;10.602;2023-03-05T12:14:24;5.30;45.30
975;DHT22;6115;49.296;10.602;2023-03-05T12:20:13;5.10;46.00
975;DHT22;6115;49.296;10.602;2023-03-05T12:25:33;5.20;46.70
975;DHT22;6115;49.296;10.602;2023-03-05T12:35:41;5.30;46.10
975;DHT22;6115;49.296;10.602;2023-03-05T12:40:41;5.50;46.40
975;DHT22;6115;49.296;10.602;2023-03-05T12:45:42;5.30;46.50
975;DHT22;6115;49.296;10.602;2023-03-05T13:06:04;4.60;48.00
975;DHT22;6115;49.296;10.602;2023-03-05T13:11:19;4.50;47.70
975;DHT22;6115;49.296;10.602;2023-03-05T13:16:27;4.40;48.00
975;DHT22;6115;49.296;10.602;2023-03-05T13:21:32;4.30;48.50
975;DHT22;6115;49.296;10.602;2023-03-05T13:26:39;4.10;49.10
975;DHT22;6115;49.296;10.602;2023-03-05T13:32:16;4.00;50.00
975;DHT22;6115;49.296;10.602;2023-03-05T13:37:24;4.00;50.00
975;DHT22;6115;49.296;10.602;2023-03-05T13:42:30;3.80;50.90
975;DHT22;6115;49.296;10.602;2023-03-05T13:47:34;3.90;51.00
975;DHT22;6115;49.296;10.602;2023-03-05T13:52:37;3.90;51.30
975;DHT22;6115;49.296;10.602;2023-03-05T13:57:40;3.90;52.00
975;DHT22;6115;49.296;10.602;2023-03-05T14:02:41;3.80;52.20
975;DHT22;6115;49.296;10.602;2023-03-05T14:07:47;3.90;52.10
975;DHT22;6115;49.296;10.602;2023-03-05T14:12:49;3.80;51.80
975;DHT22;6115;49.296;10.602;2023-03-05T14:17:51;3.80;52.10
975;DHT22;6115;49.296;10.602;2023-03-05T14:22:57;3.80;52.20
975;DHT22;6115;49.296;10.602;2023-03-05T14:27:58;3.80;52.40
975;DHT22;6115;49.296;10.602;2023-03-05T14:32:59;3.90;52.50
975;DHT22;6115;49.296;10.602;2023-03-05T14:38:00;4.00;52.30
975;DHT22;6115;49.296;10.602;2023-03-05T14:43:03;4.00;52.30
975;DHT22;6115;49.296;10.602;2023-03-05T14:48:06;4.00;52.70
975;DHT22;6115;49.296;10.602;2023-03-05T14:53:16;4.00;52.90
975;DHT22;6115;49.296;10.602;2023-03-05T14:58:21;3.90;53.30
975;DHT22;6115;49.296;10.602;2023-03-05T15:03:24;4.00;53.50
975;DHT22;6115;49.296;10.602;2023-03-05T15:08:27;4.00;53.10
975;DHT22;6115;49.296;10.602;2023-03-05T15:13:28;3.80;53.80
975;DHT22;6115;49.296;10.602;2023-03-05T15:18:29;3.40;54.90
975;DHT22;6115;49.296;10.602;2023-03-05T15:23:29;3.40;54.90
975;DHT22;6115;49.296;10.602;2023-03-05T15:28:36;3.30;54.80
975;DHT22;6115;49.296;10.602;2023-03-05T15:33:38;3.40;55.30
975;DHT22;6115;49.296;10.602;2023-03-05T15:38:41;3.40;55.90
975;DHT22;6115;49.296;10.602;2023-03-05T15:43:42;3.50;55.30
975;DHT22;6115;49.296;10.602;2023-03-05T15:48:43;3.70;55.20
975;DHT22;6115;49.296;10.602;2023-03-05T15:53:49;3.70;55.00
975;DHT22;6115;49.296;10.602;2023-03-05T15:58:50;3.50;55.00
975;DHT22;6115;49.296;10.602;2023-03-05T16:03:51;3.40;55.60
975;DHT22;6115;49.296;10.602;2023-03-05T16:08:57;3.50;55.40
975;DHT22;6115;49.296;10.602;2023-03-05T16:14:02;3.50;55.40
975;DHT22;6115;49.296;10.602;2023-03-05T16:19:05;3.50;55.40
975;DHT22;6115;49.296;10.602;2023-03-05T16:24:07;3.50;55.30
975;DHT22;6115;49.296;10.602;2023-03-05T16:29:08;3.40;55.60
975;DHT22;6115;49.296;10.602;2023-03-05T16:34:10;3.40;55.70
975;DHT22;6115;49.296;10.602;2023-03-05T16:39:13;3.30;56.10
975;DHT22;6115;49.296;10.602;2023-03-05T16:44:14;3.30;56.50
975;DHT22;6115;49.296;10.602;2023-03-05T16:49:15;3.40;56.40
975;DHT22;6115;49.296;10.602;2023-03-05T16:54:16;3.30;56.40
975;DHT22;6115;49.296;10.602;2023-03-05T16:59:16;3.30;56.60
975;DHT22;6115;49.296;10.602;2023-03-05T17:04:17;3.30;56.70
975;DHT22;6115;49.296;10.602;2023-03-05T17:09:18;3.30;56.70
975;DHT22;6115;49.296;10.602;2023-03-05T17:14:23;3.30;56.60
975;DHT22;6115;49.296;10.602;2023-03-05T17:19:24;3.20;56.80
975;DHT22;6115;49.296;10.602;2023-03-05T17:24:24;3.10;56.90
975;DHT22;6115;49.296;10.602;2023-03-05T17:29:25;3.10;57.20
975;DHT22;6115;49.296;10.602;2023-03-05T17:34:26;3.10;57.30
975;DHT22;6115;49.296;10.602;2023-03-05T17:39:26;3.20;57.20
975;DHT22;6115;49.296;10.602;2023-03-05T17:44:27;3.20;57.10
975;DHT22;6115;49.296;10.602;2023-03-05T17:49:27;3.10;57.40
975;DHT22;6115;49.296;10.602;2023-03-05T17:54:28;2.90;58.10
975;DHT22;6115;49.296;10.602;2023-03-05T17:59:29;3.00;58.30
975;DHT22;6115;49.296;10.602;2023-03-05T18:04:29;3.00;58.50
975;DHT22;6115;49.296;10.602;2023-03-05T18:09:30;3.10;58.40
975;DHT22;6115;49.296;10.602;2023-03-05T18:14:31;3.10;58.30
975;DHT22;6115;49.296;10.602;2023-03-05T18:19:32;3.20;58.20
975;DHT22;6115;49.296;10.602;2023-03-05T18:24:32;3.20;58.20
975;DHT22;6115;49.296;10.602;2023-03-05T18:29:33;3.20;58.10
975;DHT22;6115;49.296;10.602;2023-03-05T18:34:33;3.10;58.00
975;DHT22;6115;49.296;10.602;2023-03-05T18:39:34;3.10;58.00
975;DHT22;6115;49.296;10.602;2023-03-05T18:44:35;3.00;58.20
975;DHT22;6115;49.296;10.602;2023-03-05T18:49:35;2.90;58.50
975;DHT22;6115;49.296;10.602;2023-03-05T18:54:36;2.90;58.80
975;DHT22;6115;49.296;10.602;2023-03-05T18:59:36;2.90;58.50
975;DHT22;6115;49.296;10.602;2023-03-05T19:04:37;2.90;58.30
975;DHT22;6115;49.296;10.602;2023-03-05T19:09:42;2.90;58.20
975;DHT22;6115;49.296;10.602;2023-03-05T19:14:52;2.80;58.40
975;DHT22;6115;49.296;10.602;2023-03-05T19:19:54;2.80;58.80
975;DHT22;6115;49.296;10.602;2023-03-05T19:24:55;2.80;58.70
975;DHT22;6115;49.296;10.602;2023-03-05T19:29:55;2.80;58.70
975;DHT22;6115;49.296;10.602;2023-03-05T19:34:57;2.90;58.90
975;DHT22;6115;49.296;10.602;2023-03-05T19:39:57;2.80;58.70
975;DHT22;6115;49.296;10.602;2023-03-05T19:44:58;2.90;58.80
975;DHT22;6115;49.296;10.602;2023-03-05T19:49:59;2.90;58.90
975;DHT22;6115;49.296;10.602;2023-03-05T19:55:00;2.90;58.80
975;DHT22;6115;49.296;10.602;2023-03-05T20:00:00;2.80;58.80
975;DHT22;6115;49.296;10.602;2023-03-05T20:05:01;2.90;58.80
975;DHT22;6115;49.296;10.602;2023-03-05T20:10:01;3.00;58.90
975;DHT22;6115;49.296;10.602;2023-03-05T20:15:02;2.90;58.80
975;DHT22;6115;49.296;10.602;2023-03-05T20:20:03;2.80;58.70
975;DHT22;6115;49.296;10.602;2023-03-05T20:25:04;2.70;59.30
975;DHT22;6115;49.296;10.602;2023-03-05T20:30:07;2.60;59.60
975;DHT22;6115;49.296;10.602;2023-03-05T20:35:15;2.60;59.50
975;DHT22;6115;49.296;10.602;2023-03-05T20:40:16;2.70;59.30
975;DHT22;6115;49.296;10.602;2023-03-05T20:45:17;2.80;58.90
975;DHT22;6115;49.296;10.602;2023-03-05T20:50:17;2.60;59.10
975;DHT22;6115;49.296;10.602;2023-03-05T20:55:19;2.70;59.30
975;DHT22;6115;49.296;10.602;2023-03-05T21:00:19;2.60;58.60
975;DHT22;6115;49.296;10.602;2023-03-05T21:05:26;2.60;58.60
975;DHT22;6115;49.296;10.602;2023-03-05T21:10:26;2.50;58.90
975;DHT22;6115;49.296;10.602;2023-03-05T21:15:29;2.50;59.10
975;DHT22;6115;49.296;10.602;2023-03-05T21:20:30;2.40;59.20
975;DHT22;6115;49.296;10.602;2023-03-05T21:25:32;2.50;59.30
975;DHT22;6115;49.296;10.602;2023-03-05T21:30:46;2.50;58.90
975;DHT22;6115;49.296;10.602;2023-03-05T21:35:48;2.50;58.50
975;DHT22;6115;49.296;10.602;2023-03-05T21:40:52;2.60;58.60
975;DHT22;6115;49.296;10.602;2023-03-05T21:45:53;2.60;58.60
975;DHT22;6115;49.296;10.602;2023-03-05T21:50:56;2.50;58.50
975;DHT22;6115;49.296;10.602;2023-03-05T21:56:08;2.40;58.40
975;DHT22;6115;49.296;10.602;2023-03-05T22:01:12;2.50;58.50
975;DHT22;6115;49.296;10.602;2023-03-05T22:06:15;2.50;58.50
975;DHT22;6115;49.296;10.602;2023-03-05T22:11:17;2.50;58.50
975;DHT22;6115;49.296;10.602;2023-03-05T22:16:22;2.50;58.50
975;DHT22;6115;49.296;10.602;2023-03-05T22:21:24;2.30;58.30
975;DHT22;6115;49.296;10.602;2023-03-05T22:26:33;2.30;58.80
975;DHT22;6115;49.296;10.602;2023-03-05T22:31:34;2.20;58.80
975;DHT22;6115;49.296;10.602;2023-03-05T22:36:35;2.30;59.00
975;DHT22;6115;49.296;10.602;2023-03-05T22:41:39;2.40;58.50
975;DHT22;6115;49.296;10.602;2023-03-05T22:46:40;2.40;58.40
975;DHT22;6115;49.296;10.602;2023-03-05T22:51:40;2.40;59.00
975;DHT22;6115;49.296;10.602;2023-03-05T22:56:41;2.40;58.90
975;DHT22;6115;49.296;10.602;2023-03-05T23:01:41;2.50;58.80
975;DHT22;6115;49.296;10.602;2023-03-05T23:06:42;2.50;58.50
975;DHT22;6115;49.296;10.602;2023-03-05T23:11:43;2.50;58.50
975;DHT22;6115;49.296;10.602;2023-03-05T23:16:43;2.40;58.40
975;DHT22;6115;49.296;10.602;2023-03-05T23:21:44;2.30;58.60
975;DHT22;6115;49.296;10.602;2023-03-05T23:26:44;2.30;58.70
975;DHT22;6115;49.296;10.602;2023-03-05T23:31:45;2.20;59.00
975;DHT22;6115;49.296;10.602;2023-03-05T23:36:45;2.20;59.30
975;DHT22;6115;49.296;10.602;2023-03-05T23:41:46;2.30;59.50
975;DHT22;6115;49.296;10.602;2023-03-05T23:46:46;2.30;59.30
975;DHT22;6115;49.296;10.602;2023-03-05T23:51:47;2.40;59.00
975;DHT22;6115;49.296;10.602;2023-03-05T23:56:47;2.30;59.00
